createdAt,value
2023-01-30T00:02:41.325Z,7.40
2023-01-30T00:07:44.754Z,6.17
2023-01-30T00:12:49.600Z,6.83
2023-01-30T00:17:53.044Z,9.53
2023-01-30T00:23:01.065Z,10.07
2023-01-30T00:28:06.217Z,8.87
2023-01-30T00:33:10.743Z,9.33
2023-01-30T00:38:14.214Z,7.87
2023-01-30T00:43:38.327Z,7.63
2023-01-30T00:48:41.727Z,7.77
2023-01-30T00:53:45.143Z,7.60
2023-01-30T00:58:50.030Z,7.87
2023-01-30T01:03:53.579Z,7.83
2023-01-30T01:08:57.048Z,7.13
2023-01-30T01:14:03.476Z,7.67
2023-01-30T01:19:06.968Z,8.73
2023-01-30T01:24:13.881Z,8.70
2023-01-30T01:29:18.843Z,7.13
2023-01-30T01:34:22.322Z,9.50
2023-01-30T01:39:45.708Z,8.17
2023-01-30T01:45:04.800Z,6.30
2023-01-30T01:50:12.842Z,6.80
2023-01-30T01:55:17.726Z,7.97
2023-01-30T02:00:23.842Z,7.53
2023-01-30T02:05:29.946Z,9.53
2023-01-30T02:10:47.277Z,8.60
2023-01-30T02:15:52.980Z,6.87
2023-01-30T02:21:25.727Z,6.93
2023-01-30T02:27:03.779Z,9.67
2023-01-30T02:32:19.700Z,6.97
2023-01-30T02:37:31.374Z,6.73
2023-01-30T02:42:43.919Z,7.80
2023-01-30T02:47:55.057Z,7.00
2023-01-30T02:52:59.786Z,7.67
2023-01-30T02:58:05.101Z,9.27
2023-01-30T03:03:24.509Z,6.63
2023-01-30T03:08:34.429Z,6.87
2023-01-30T03:13:50.101Z,7.70
2023-01-30T03:18:55.184Z,7.73
2023-01-30T03:23:58.614Z,8.30
2023-01-30T03:29:02.730Z,6.97
2023-01-30T03:34:07.684Z,7.57
2023-01-30T03:39:11.135Z,7.47
2023-01-30T03:44:14.563Z,5.80
2023-01-30T03:49:19.395Z,7.67
2023-01-30T03:54:22.954Z,6.80
2023-01-30T03:59:26.403Z,6.00
2023-01-30T04:04:31.268Z,6.70
2023-01-30T04:09:34.660Z,7.00
2023-01-30T04:14:38.024Z,8.07
2023-01-30T04:19:42.854Z,7.90
2023-01-30T04:24:46.233Z,6.73
2023-01-30T04:29:49.658Z,5.83
2023-01-30T04:34:54.474Z,6.97
2023-01-30T04:39:57.861Z,6.37
2023-01-30T04:45:01.254Z,6.43
2023-01-30T04:50:06.778Z,5.80
2023-01-30T04:55:10.888Z,7.67
2023-01-30T05:00:15.142Z,6.97
2023-01-30T05:05:20.451Z,8.07
2023-01-30T05:10:23.988Z,7.23
2023-01-30T05:15:27.526Z,7.20
2023-01-30T05:20:32.528Z,6.87
2023-01-30T05:25:36.159Z,6.70
2023-01-30T05:30:39.757Z,7.73
2023-01-30T05:35:49.803Z,7.47
2023-01-30T05:41:00.705Z,6.27
2023-01-30T05:46:06.976Z,7.13
2023-01-30T05:51:20.262Z,6.37
2023-01-30T05:56:24.317Z,6.20
2023-01-30T06:01:28.707Z,7.00
2023-01-30T06:06:33.692Z,6.90
2023-01-30T06:11:37.154Z,6.90
2023-01-30T06:16:40.686Z,7.80
2023-01-30T06:21:45.788Z,7.50
2023-01-30T06:26:49.302Z,6.83
2023-01-30T06:31:52.857Z,6.87
2023-01-30T06:36:57.811Z,7.07
2023-01-30T06:42:01.224Z,7.57
2023-01-30T06:47:04.736Z,6.37
2023-01-30T06:52:09.706Z,6.03
2023-01-30T06:57:13.112Z,10.60
2023-01-30T07:02:16.551Z,6.60
2023-01-30T07:07:21.396Z,7.97
2023-01-30T07:12:25.074Z,9.90
2023-01-30T07:17:28.489Z,8.83
2023-01-30T07:22:33.329Z,8.27
2023-01-30T07:27:36.755Z,7.33
2023-01-30T07:32:40.173Z,8.67
2023-01-30T07:37:46.793Z,6.40
2023-01-30T07:42:58.219Z,7.93
2023-01-30T07:48:01.595Z,10.77
2023-01-30T07:53:07.284Z,7.73
2023-01-30T07:58:13.847Z,12.37
2023-01-30T08:03:18.511Z,8.00
2023-01-30T08:08:23.304Z,8.83
2023-01-30T08:13:26.757Z,7.70
2023-01-30T08:18:30.602Z,7.07
2023-01-30T08:23:35.830Z,7.40
2023-01-30T08:28:39.266Z,7.07
2023-01-30T08:33:42.660Z,7.77
2023-01-30T08:38:47.738Z,7.83
2023-01-30T08:43:51.155Z,7.13
2023-01-30T08:48:54.560Z,7.20
2023-01-30T08:53:59.581Z,9.03
2023-01-30T08:59:03.217Z,9.17
2023-01-30T09:04:06.698Z,8.60
2023-01-30T09:09:11.586Z,8.40
2023-01-30T09:14:16.563Z,7.73
2023-01-30T09:19:19.975Z,7.73
2023-01-30T09:24:27.010Z,8.40
2023-01-30T09:29:30.994Z,7.67
2023-01-30T09:34:34.427Z,7.53
2023-01-30T09:39:39.383Z,8.23
2023-01-30T09:45:12.796Z,7.27
2023-01-30T09:50:32.048Z,6.17
2023-01-30T09:55:43.287Z,8.17
2023-01-30T10:00:48.388Z,7.03
2023-01-30T10:05:55.728Z,6.13
2023-01-30T10:11:10.738Z,6.63
2023-01-30T10:16:19.796Z,8.30
2023-01-30T10:21:33.422Z,6.43
2023-01-30T10:26:47.538Z,6.70
2023-01-30T10:31:55.493Z,8.27
2023-01-30T10:37:05.476Z,6.33
2023-01-30T10:42:14.298Z,8.90
2023-01-30T10:47:47.016Z,10.50
2023-01-30T10:52:59.074Z,7.43
2023-01-30T10:58:11.349Z,7.70
2023-01-30T11:03:25.944Z,8.03
2023-01-30T11:08:31.660Z,7.37
2023-01-30T11:13:37.671Z,9.03
2023-01-30T11:24:17.793Z,8.00
2023-01-30T11:29:31.316Z,6.67
2023-01-30T11:34:34.655Z,5.83
2023-01-30T11:39:38.042Z,8.27
2023-01-30T11:44:43.557Z,7.03
2023-01-30T11:50:00.667Z,7.57
2023-01-30T11:55:16.351Z,7.97
2023-01-30T12:00:24.499Z,7.47
2023-01-30T12:05:34.711Z,6.47
2023-01-30T12:10:42.970Z,5.47
2023-01-30T12:15:50.555Z,4.40
2023-01-30T12:20:59.832Z,4.47
2023-01-30T12:26:12.236Z,3.83
2023-01-30T12:31:22.082Z,3.63
2023-01-30T12:36:36.619Z,3.20
2023-01-30T12:41:52.548Z,4.63
2023-01-30T12:47:16.714Z,3.60
2023-01-30T12:52:34.838Z,4.87
2023-01-30T12:57:45.581Z,3.83
2023-01-30T13:03:01.252Z,3.10
2023-01-30T13:08:31.457Z,3.57
2023-01-30T13:13:43.193Z,2.97
2023-01-30T13:18:55.788Z,2.67
2023-01-30T13:24:13.132Z,2.43
2023-01-30T13:29:24.985Z,5.70
2023-01-30T13:34:37.867Z,2.50
2023-01-30T13:39:45.268Z,7.60
2023-01-30T13:44:50.263Z,9.63
2023-01-30T13:50:06.603Z,6.43
2023-01-30T13:55:23.583Z,7.37
2023-01-30T14:00:33.649Z,5.53
2023-01-30T14:06:16.552Z,4.47
2023-01-30T14:11:37.184Z,5.33
2023-01-30T14:16:46.046Z,5.40
2023-01-30T14:21:57.282Z,5.63
2023-01-30T14:27:23.011Z,5.53
2023-01-30T14:32:55.536Z,5.50
2023-01-30T14:38:14.701Z,7.70
2023-01-30T14:43:54.038Z,5.53
2023-01-30T14:49:05.229Z,5.87
2023-01-30T14:54:25.394Z,5.60
2023-01-30T14:59:36.853Z,5.90
2023-01-30T15:04:44.795Z,6.37
2023-01-30T15:09:55.170Z,5.50
2023-01-30T15:15:10.497Z,5.57
2023-01-30T15:20:29.596Z,6.93
2023-01-30T15:25:44.614Z,6.30
2023-01-30T15:31:04.320Z,7.60
2023-01-30T15:36:21.159Z,8.17
2023-01-30T15:41:24.774Z,5.30
2023-01-30T15:46:39.299Z,6.57
2023-01-30T15:51:42.924Z,8.23
2023-01-30T15:56:49.935Z,6.60
2023-01-30T16:02:06.465Z,8.13
2023-01-30T16:07:17.075Z,7.13
2023-01-30T16:12:27.611Z,5.90
2023-01-30T16:17:37.850Z,9.43
2023-01-30T16:22:46.261Z,6.87
2023-01-30T16:27:52.231Z,8.30
2023-01-30T16:32:59.045Z,8.20
2023-01-30T16:38:05.661Z,6.70
2023-01-30T16:43:20.215Z,3.43
2023-01-30T16:48:33.781Z,3.03
2023-01-30T16:53:38.569Z,2.83
2023-01-30T16:58:46.714Z,2.20
2023-01-30T17:04:03.330Z,4.13
2023-01-30T17:09:29.455Z,3.40
2023-01-30T17:14:33.721Z,3.83
2023-01-30T17:19:39.414Z,3.73
2023-01-30T17:24:43.327Z,4.17
2023-01-30T17:29:49.482Z,3.43
2023-01-30T17:34:56.196Z,4.33
2023-01-30T17:40:01.192Z,2.23
2023-01-30T17:45:05.739Z,3.17
2023-01-30T17:50:15.355Z,1.27
2023-01-30T17:55:20.668Z,0.10
2023-01-30T18:00:26.827Z,2.03
2023-01-30T18:05:33.037Z,3.73
2023-01-30T18:10:41.162Z,0.80
2023-01-30T18:15:45.848Z,1.27
2023-01-30T18:20:53.003Z,1.10
2023-01-30T18:25:58.003Z,0.83
2023-01-30T18:31:02.610Z,2.20
2023-01-30T18:36:11.024Z,0.40
2023-01-30T18:41:18.334Z,0.73
2023-01-30T18:46:23.232Z,0.90
2023-01-30T18:51:32.470Z,0.57
2023-01-30T18:56:39.320Z,0.63
2023-01-30T19:01:44.918Z,0.37
2023-01-30T19:06:51.549Z,0.80
2023-01-30T19:12:13.625Z,0.43
2023-01-30T19:17:19.183Z,0.40
2023-01-30T19:22:26.105Z,0.70
2023-01-30T19:27:30.772Z,2.20
2023-01-30T19:32:36.258Z,1.77
2023-01-30T19:37:45.737Z,1.23
2023-01-30T19:42:54.630Z,1.83
2023-01-30T19:48:01.589Z,1.20
2023-01-30T19:53:13.120Z,2.13
2023-01-30T19:58:18.702Z,1.10
2023-01-30T20:03:23.835Z,2.10
2023-01-30T20:08:32.858Z,0.90
2023-01-30T20:13:38.719Z,0.57
2023-01-30T20:18:46.670Z,0.70
2023-01-30T20:23:54.585Z,1.10
2023-01-30T20:29:00.311Z,1.50
2023-01-30T20:34:09.879Z,1.37
2023-01-30T20:39:17.497Z,9.30
2023-01-30T20:44:22.929Z,3.93
2023-01-30T20:49:27.576Z,1.43
2023-01-30T20:54:33.567Z,3.40
2023-01-30T20:59:37.625Z,2.43
2023-01-30T21:04:41.876Z,2.37
2023-01-30T21:09:47.939Z,2.00
2023-01-30T21:14:55.837Z,2.10
2023-01-30T21:20:00.332Z,2.10
2023-01-30T21:25:06.686Z,2.57
2023-01-30T21:30:11.915Z,3.60
2023-01-30T21:35:15.904Z,1.63
2023-01-30T21:40:39.023Z,2.43
2023-01-30T21:45:42.612Z,1.60
2023-01-30T21:50:48.056Z,2.83
2023-01-30T21:55:54.126Z,4.30
2023-01-30T22:00:57.491Z,2.03
2023-01-30T22:06:01.014Z,1.80
2023-01-30T22:11:11.330Z,1.37
2023-01-30T22:16:17.104Z,3.10
2023-01-30T22:21:23.294Z,2.37
2023-01-30T22:26:28.509Z,3.10
2023-01-30T22:31:34.791Z,1.60
2023-01-30T22:36:38.372Z,1.73
2023-01-30T22:41:43.193Z,2.57
2023-01-30T22:46:46.628Z,3.30
2023-01-30T22:51:50.014Z,1.53
2023-01-30T22:56:55.229Z,1.73
2023-01-30T23:01:58.659Z,3.30
2023-01-30T23:07:02.150Z,2.47
2023-01-30T23:12:24.803Z,2.17
2023-01-30T23:17:45.739Z,0.90
2023-01-30T23:22:53.973Z,3.80
2023-01-30T23:28:00.121Z,1.97
2023-01-30T23:33:11.536Z,1.20
2023-01-30T23:38:19.337Z,3.07
2023-01-30T23:43:24.213Z,1.33
2023-01-30T23:48:27.609Z,0.87
2023-01-30T23:53:31.008Z,1.90
2023-01-30T23:58:36.591Z,1.20
